This is the latest recevied weather packets stored in our database for station/object DG0PX-12. If no packets are shown the sender has not sent any weather packets the latest 10 day(s).
| Time | Temp. | Humidity | Pressure | Rain* | Wind** | Luminosity | Snow |
|---|---|---|---|---|---|---|---|
| 1787711367 | 21.67° C | 65% | 949.5 hPa | - | - | - | - |
| 1787710467 | 21.11° C | 69% | 949.5 hPa | - | - | - | - |
| 1787709567 | 22.22° C | 61% | 949.6 hPa | - | - | - | - |
| 1787708667 | 22.78° C | 61% | 949.6 hPa | - | - | - | - |
| 1787707767 | 22.22° C | 61% | 949.4 hPa | - | - | - | - |
| 1787706867 | 22.22° C | 62% | 949.4 hPa | - | - | - | - |
| 1787705967 | 20.56° C | 69% | 949.3 hPa | - | - | - | - |
| 1787705067 | 21.67° C | 63% | 949.3 hPa | - | - | - | - |
| 1787704167 | 22.78° C | 59% | 949.3 hPa | - | - | - | - |
| 1787703267 | 21.11° C | 65% | 949.2 hPa | - | - | - | - |
| 1787702367 | 21.67° C | 61% | 949.3 hPa | - | - | - | - |
| 1787701467 | 22.78° C | 60% | 949.4 hPa | - | - | - | - |
| 1787700566 | 21.67° C | 65% | 949.3 hPa | - | - | - | - |
| 1787699666 | 21.67° C | 65% | 949.3 hPa | - | - | - | - |
| 1787698766 | 22.22° C | 62% | 949.3 hPa | - | - | - | - |
| 1787697866 | 23.33° C | 59% | 949.5 hPa | - | - | - | - |
| 1787696966 | 23.89° C | 58% | 949.5 hPa | - | - | - | - |
| 1787696066 | 23.89° C | 58% | 949.5 hPa | - | - | - | - |
| 1787695166 | 23.33° C | 62% | 949.5 hPa | - | - | - | - |
| 1787694266 | 23.89° C | 60% | 949.4 hPa | - | - | - | - |
| 1787693366 | 23.33° C | 64% | 949.3 hPa | - | - | - | - |
| 1787692466 | 23.33° C | 63% | 949.3 hPa | - | - | - | - |
| 1787691566 | 24.44° C | 59% | 949.3 hPa | - | - | - | - |
| 1787690666 | 24.44° C | 61% | 949.2 hPa | - | - | - | - |
| 1787689766 | 23.89° C | 62% | 949.2 hPa | - | - | - | - |
* Rain since midnight (hover to see other rain measurements)
** Current wind speed in m/s (hover to see current wind gust speed)